sensor_id;sensor_type;location;lat;lon;timestamp;P1;durP1;ratioP1;P2;durP2;ratioP2
18812;SDS011;9534;51.140;6.296;2022-09-13T00:04:00;2.63;;;1.65;;
18812;SDS011;9534;51.140;6.296;2022-09-13T00:08:05;2.10;;;1.60;;
18812;SDS011;9534;51.140;6.296;2022-09-13T00:12:08;4.18;;;1.80;;
18812;SDS011;9534;51.140;6.296;2022-09-13T00:16:12;2.67;;;1.67;;
18812;SDS011;9534;51.140;6.296;2022-09-13T00:20:18;2.40;;;1.60;;
18812;SDS011;9534;51.140;6.296;2022-09-13T00:24:21;3.03;;;1.70;;
18812;SDS011;9534;51.140;6.296;2022-09-13T00:28:24;2.90;;;1.65;;
18812;SDS011;9534;51.140;6.296;2022-09-13T00:32:27;2.03;;;1.33;;
18812;SDS011;9534;51.140;6.296;2022-09-13T00:36:31;2.53;;;1.60;;
18812;SDS011;9534;51.140;6.296;2022-09-13T00:40:36;4.03;;;1.60;;
18812;SDS011;9534;51.140;6.296;2022-09-13T00:44:51;2.55;;;1.67;;
18812;SDS011;9534;51.140;6.296;2022-09-13T00:48:59;6.30;;;1.70;;
18812;SDS011;9534;51.140;6.296;2022-09-13T00:53:07;3.25;;;1.60;;
18812;SDS011;9534;51.140;6.296;2022-09-13T00:57:13;3.22;;;1.42;;
18812;SDS011;9534;51.140;6.296;2022-09-13T01:01:20;3.33;;;1.88;;
18812;SDS011;9534;51.140;6.296;2022-09-13T01:05:29;9.60;;;1.67;;
18812;SDS011;9534;51.140;6.296;2022-09-13T01:09:39;2.83;;;1.40;;
18812;SDS011;9534;51.140;6.296;2022-09-13T01:13:46;3.20;;;1.40;;
18812;SDS011;9534;51.140;6.296;2022-09-13T01:17:51;2.35;;;1.55;;
18812;SDS011;9534;51.140;6.296;2022-09-13T01:26:58;2.85;;;1.50;;
18812;SDS011;9534;51.140;6.296;2022-09-13T01:31:19;2.17;;;1.50;;
18812;SDS011;9534;51.140;6.296;2022-09-13T01:35:37;2.45;;;1.40;;
18812;SDS011;9534;51.140;6.296;2022-09-13T01:39:53;6.57;;;1.52;;
18812;SDS011;9534;51.140;6.296;2022-09-13T01:44:06;2.78;;;1.45;;
18812;SDS011;9534;51.140;6.296;2022-09-13T01:48:17;3.28;;;1.70;;
18812;SDS011;9534;51.140;6.296;2022-09-13T01:52:26;4.45;;;1.73;;
18812;SDS011;9534;51.140;6.296;2022-09-13T01:56:37;2.78;;;1.58;;
18812;SDS011;9534;51.140;6.296;2022-09-13T02:00:46;2.65;;;1.58;;
18812;SDS011;9534;51.140;6.296;2022-09-13T02:05:03;3.65;;;1.50;;
18812;SDS011;9534;51.140;6.296;2022-09-13T02:09:12;2.22;;;1.20;;
18812;SDS011;9534;51.140;6.296;2022-09-13T02:13:23;7.38;;;1.52;;
18812;SDS011;9534;51.140;6.296;2022-09-13T02:17:33;3.78;;;1.58;;
18812;SDS011;9534;51.140;6.296;2022-09-13T02:21:42;2.42;;;1.23;;
18812;SDS011;9534;51.140;6.296;2022-09-13T02:25:47;2.53;;;1.50;;
18812;SDS011;9534;51.140;6.296;2022-09-13T02:29:55;5.70;;;1.40;;
18812;SDS011;9534;51.140;6.296;2022-09-13T02:34:02;2.70;;;1.35;;
18812;SDS011;9534;51.140;6.296;2022-09-13T02:38:11;2.28;;;1.45;;
18812;SDS011;9534;51.140;6.296;2022-09-13T02:42:20;2.95;;;1.30;;
18812;SDS011;9534;51.140;6.296;2022-09-13T02:46:28;3.53;;;1.50;;
18812;SDS011;9534;51.140;6.296;2022-09-13T02:50:57;2.60;;;1.40;;
18812;SDS011;9534;51.140;6.296;2022-09-13T02:55:07;1.52;;;1.25;;
18812;SDS011;9534;51.140;6.296;2022-09-13T02:59:18;2.95;;;1.20;;
18812;SDS011;9534;51.140;6.296;2022-09-13T03:03:23;2.15;;;1.23;;
18812;SDS011;9534;51.140;6.296;2022-09-13T03:07:26;3.33;;;1.70;;
18812;SDS011;9534;51.140;6.296;2022-09-13T03:11:34;5.93;;;1.73;;
18812;SDS011;9534;51.140;6.296;2022-09-13T03:15:55;2.60;;;1.50;;
18812;SDS011;9534;51.140;6.296;2022-09-13T03:20:09;2.33;;;1.50;;
18812;SDS011;9534;51.140;6.296;2022-09-13T03:24:17;2.15;;;1.50;;
18812;SDS011;9534;51.140;6.296;2022-09-13T03:28:29;2.45;;;1.52;;
18812;SDS011;9534;51.140;6.296;2022-09-13T03:32:40;4.65;;;1.73;;
18812;SDS011;9534;51.140;6.296;2022-09-13T03:36:53;3.70;;;1.77;;
18812;SDS011;9534;51.140;6.296;2022-09-13T03:40:59;4.28;;;1.95;;
18812;SDS011;9534;51.140;6.296;2022-09-13T03:45:10;4.57;;;2.00;;
18812;SDS011;9534;51.140;6.296;2022-09-13T03:49:17;3.25;;;1.73;;
18812;SDS011;9534;51.140;6.296;2022-09-13T03:53:25;5.75;;;2.63;;
18812;SDS011;9534;51.140;6.296;2022-09-13T03:57:32;4.00;;;2.15;;
18812;SDS011;9534;51.140;6.296;2022-09-13T04:01:36;3.10;;;1.80;;
18812;SDS011;9534;51.140;6.296;2022-09-13T04:05:39;10.75;;;2.13;;
18812;SDS011;9534;51.140;6.296;2022-09-13T04:09:42;3.67;;;2.15;;
18812;SDS011;9534;51.140;6.296;2022-09-13T04:13:46;2.90;;;1.90;;
18812;SDS011;9534;51.140;6.296;2022-09-13T04:17:50;6.53;;;1.95;;
18812;SDS011;9534;51.140;6.296;2022-09-13T04:21:54;3.95;;;1.63;;
18812;SDS011;9534;51.140;6.296;2022-09-13T04:26:00;5.95;;;1.92;;
18812;SDS011;9534;51.140;6.296;2022-09-13T04:30:04;35.20;;;13.93;;
18812;SDS011;9534;51.140;6.296;2022-09-13T04:34:10;5.65;;;2.08;;
18812;SDS011;9534;51.140;6.296;2022-09-13T04:38:13;4.40;;;1.80;;
18812;SDS011;9534;51.140;6.296;2022-09-13T04:42:16;3.40;;;1.73;;
18812;SDS011;9534;51.140;6.296;2022-09-13T04:46:20;4.47;;;1.80;;
18812;SDS011;9534;51.140;6.296;2022-09-13T04:50:24;4.25;;;1.58;;
18812;SDS011;9534;51.140;6.296;2022-09-13T04:54:27;7.05;;;2.05;;
18812;SDS011;9534;51.140;6.296;2022-09-13T04:58:30;20.70;;;7.13;;
18812;SDS011;9534;51.140;6.296;2022-09-13T05:02:33;3.13;;;1.50;;
18812;SDS011;9534;51.140;6.296;2022-09-13T05:06:38;1.88;;;1.33;;
18812;SDS011;9534;51.140;6.296;2022-09-13T05:10:41;2.65;;;1.35;;
18812;SDS011;9534;51.140;6.296;2022-09-13T05:14:44;2.00;;;1.42;;
18812;SDS011;9534;51.140;6.296;2022-09-13T05:18:47;12.63;;;2.80;;
18812;SDS011;9534;51.140;6.296;2022-09-13T05:22:52;71.50;;;26.00;;
18812;SDS011;9534;51.140;6.296;2022-09-13T05:26:57;6.65;;;2.55;;
18812;SDS011;9534;51.140;6.296;2022-09-13T05:31:01;2.58;;;1.65;;
18812;SDS011;9534;51.140;6.296;2022-09-13T05:35:06;1.75;;;1.13;;
18812;SDS011;9534;51.140;6.296;2022-09-13T05:39:12;3.75;;;1.40;;
18812;SDS011;9534;51.140;6.296;2022-09-13T05:43:38;4.78;;;1.83;;
18812;SDS011;9534;51.140;6.296;2022-09-13T05:47:41;3.88;;;1.50;;
18812;SDS011;9534;51.140;6.296;2022-09-13T05:51:44;2.47;;;1.35;;
18812;SDS011;9534;51.140;6.296;2022-09-13T05:55:48;4.20;;;1.50;;
18812;SDS011;9534;51.140;6.296;2022-09-13T05:59:51;2.45;;;1.35;;
18812;SDS011;9534;51.140;6.296;2022-09-13T06:03:55;2.28;;;1.20;;
18812;SDS011;9534;51.140;6.296;2022-09-13T06:07:59;1.90;;;1.50;;
18812;SDS011;9534;51.140;6.296;2022-09-13T06:12:03;5.50;;;1.40;;
18812;SDS011;9534;51.140;6.296;2022-09-13T06:16:07;2.83;;;1.60;;
18812;SDS011;9534;51.140;6.296;2022-09-13T06:20:12;3.40;;;1.50;;
18812;SDS011;9534;51.140;6.296;2022-09-13T06:24:15;2.70;;;1.35;;
18812;SDS011;9534;51.140;6.296;2022-09-13T06:28:19;3.25;;;1.30;;
18812;SDS011;9534;51.140;6.296;2022-09-13T06:32:22;4.55;;;1.60;;
18812;SDS011;9534;51.140;6.296;2022-09-13T06:36:26;2.08;;;1.27;;
18812;SDS011;9534;51.140;6.296;2022-09-13T06:40:29;3.63;;;1.50;;
18812;SDS011;9534;51.140;6.296;2022-09-13T06:44:34;2.45;;;1.58;;
18812;SDS011;9534;51.140;6.296;2022-09-13T06:48:37;5.00;;;1.50;;
18812;SDS011;9534;51.140;6.296;2022-09-13T06:52:42;3.05;;;1.67;;
18812;SDS011;9534;51.140;6.296;2022-09-13T06:56:45;3.72;;;1.58;;
18812;SDS011;9534;51.140;6.296;2022-09-13T07:00:49;2.05;;;1.52;;
18812;SDS011;9534;51.140;6.296;2022-09-13T07:04:56;2.15;;;1.52;;
18812;SDS011;9534;51.140;6.296;2022-09-13T07:09:00;2.80;;;1.40;;
18812;SDS011;9534;51.140;6.296;2022-09-13T07:13:05;1.70;;;1.23;;
18812;SDS011;9534;51.140;6.296;2022-09-13T07:17:09;2.40;;;1.20;;
18812;SDS011;9534;51.140;6.296;2022-09-13T07:21:12;5.53;;;1.58;;
18812;SDS011;9534;51.140;6.296;2022-09-13T07:25:16;3.50;;;1.33;;
18812;SDS011;9534;51.140;6.296;2022-09-13T07:29:20;2.45;;;1.27;;
18812;SDS011;9534;51.140;6.296;2022-09-13T07:33:25;4.43;;;1.50;;
18812;SDS011;9534;51.140;6.296;2022-09-13T07:37:29;2.92;;;1.65;;
18812;SDS011;9534;51.140;6.296;2022-09-13T07:41:32;4.55;;;1.70;;
18812;SDS011;9534;51.140;6.296;2022-09-13T07:45:35;4.13;;;1.70;;
18812;SDS011;9534;51.140;6.296;2022-09-13T07:49:40;3.85;;;1.88;;
18812;SDS011;9534;51.140;6.296;2022-09-13T07:53:44;5.75;;;1.58;;
18812;SDS011;9534;51.140;6.296;2022-09-13T07:57:47;5.95;;;1.77;;
18812;SDS011;9534;51.140;6.296;2022-09-13T08:01:50;8.73;;;1.92;;
18812;SDS011;9534;51.140;6.296;2022-09-13T08:05:55;4.75;;;1.70;;
18812;SDS011;9534;51.140;6.296;2022-09-13T08:09:58;3.65;;;1.63;;
18812;SDS011;9534;51.140;6.296;2022-09-13T08:14:01;3.33;;;1.60;;
18812;SDS011;9534;51.140;6.296;2022-09-13T08:18:05;5.63;;;1.80;;
18812;SDS011;9534;51.140;6.296;2022-09-13T08:22:10;3.95;;;1.48;;
18812;SDS011;9534;51.140;6.296;2022-09-13T08:26:13;2.42;;;1.70;;
18812;SDS011;9534;51.140;6.296;2022-09-13T08:30:18;5.93;;;1.90;;
18812;SDS011;9534;51.140;6.296;2022-09-13T08:34:21;3.13;;;1.90;;
18812;SDS011;9534;51.140;6.296;2022-09-13T08:38:25;6.18;;;1.75;;
18812;SDS011;9534;51.140;6.296;2022-09-13T08:42:32;2.78;;;1.75;;
18812;SDS011;9534;51.140;6.296;2022-09-13T08:46:47;5.68;;;2.00;;
18812;SDS011;9534;51.140;6.296;2022-09-13T08:50:51;3.35;;;2.15;;
18812;SDS011;9534;51.140;6.296;2022-09-13T08:55:07;6.03;;;2.00;;
18812;SDS011;9534;51.140;6.296;2022-09-13T08:59:28;5.55;;;2.40;;
18812;SDS011;9534;51.140;6.296;2022-09-13T09:03:43;3.47;;;2.28;;
18812;SDS011;9534;51.140;6.296;2022-09-13T09:07:53;3.83;;;2.40;;
18812;SDS011;9534;51.140;6.296;2022-09-13T09:12:03;3.92;;;2.60;;
18812;SDS011;9534;51.140;6.296;2022-09-13T09:16:16;4.47;;;2.72;;
18812;SDS011;9534;51.140;6.296;2022-09-13T09:20:30;4.53;;;2.47;;
18812;SDS011;9534;51.140;6.296;2022-09-13T09:24:38;5.68;;;3.00;;
18812;SDS011;9534;51.140;6.296;2022-09-13T09:28:49;8.90;;;3.08;;
18812;SDS011;9534;51.140;6.296;2022-09-13T09:32:59;8.90;;;2.95;;
18812;SDS011;9534;51.140;6.296;2022-09-13T09:37:14;6.10;;;2.78;;
18812;SDS011;9534;51.140;6.296;2022-09-13T09:41:25;6.97;;;3.20;;
18812;SDS011;9534;51.140;6.296;2022-09-13T09:45:32;5.45;;;2.80;;
18812;SDS011;9534;51.140;6.296;2022-09-13T09:49:38;7.20;;;2.42;;
18812;SDS011;9534;51.140;6.296;2022-09-13T09:54:03;6.20;;;2.53;;
18812;SDS011;9534;51.140;6.296;2022-09-13T09:58:06;4.88;;;2.63;;
18812;SDS011;9534;51.140;6.296;2022-09-13T10:02:16;4.90;;;3.05;;
18812;SDS011;9534;51.140;6.296;2022-09-13T10:06:23;3.65;;;2.20;;
18812;SDS011;9534;51.140;6.296;2022-09-13T10:10:31;5.22;;;2.83;;
18812;SDS011;9534;51.140;6.296;2022-09-13T10:14:40;6.28;;;2.25;;
18812;SDS011;9534;51.140;6.296;2022-09-13T10:18:47;3.55;;;2.58;;
18812;SDS011;9534;51.140;6.296;2022-09-13T10:27:23;4.50;;;2.38;;
18812;SDS011;9534;51.140;6.296;2022-09-13T10:31:32;5.03;;;2.30;;
18812;SDS011;9534;51.140;6.296;2022-09-13T10:35:39;5.53;;;3.13;;
18812;SDS011;9534;51.140;6.296;2022-09-13T10:39:48;4.60;;;2.78;;
18812;SDS011;9534;51.140;6.296;2022-09-13T10:43:56;5.38;;;2.88;;
18812;SDS011;9534;51.140;6.296;2022-09-13T10:48:02;6.45;;;3.30;;
18812;SDS011;9534;51.140;6.296;2022-09-13T10:52:25;5.15;;;2.50;;
18812;SDS011;9534;51.140;6.296;2022-09-13T10:56:31;6.55;;;3.03;;
18812;SDS011;9534;51.140;6.296;2022-09-13T11:00:38;5.53;;;2.90;;
18812;SDS011;9534;51.140;6.296;2022-09-13T11:04:55;5.13;;;2.80;;
18812;SDS011;9534;51.140;6.296;2022-09-13T11:09:17;4.55;;;2.83;;
18812;SDS011;9534;51.140;6.296;2022-09-13T11:13:27;5.60;;;2.80;;
18812;SDS011;9534;51.140;6.296;2022-09-13T11:17:55;4.95;;;2.40;;
18812;SDS011;9534;51.140;6.296;2022-09-13T11:22:17;6.35;;;2.40;;
18812;SDS011;9534;51.140;6.296;2022-09-13T11:26:41;4.18;;;2.50;;
18812;SDS011;9534;51.140;6.296;2022-09-13T11:31:06;3.60;;;2.08;;
18812;SDS011;9534;51.140;6.296;2022-09-13T11:35:24;6.75;;;2.92;;
18812;SDS011;9534;51.140;6.296;2022-09-13T11:39:37;5.13;;;2.75;;
18812;SDS011;9534;51.140;6.296;2022-09-13T11:43:55;4.63;;;2.50;;
18812;SDS011;9534;51.140;6.296;2022-09-13T11:48:20;4.75;;;2.65;;
18812;SDS011;9534;51.140;6.296;2022-09-13T11:52:46;4.50;;;2.53;;
18812;SDS011;9534;51.140;6.296;2022-09-13T11:57:00;6.38;;;2.90;;
18812;SDS011;9534;51.140;6.296;2022-09-13T12:01:10;5.85;;;2.15;;
18812;SDS011;9534;51.140;6.296;2022-09-13T12:05:18;3.70;;;2.00;;
18812;SDS011;9534;51.140;6.296;2022-09-13T12:09:25;7.32;;;2.50;;
18812;SDS011;9534;51.140;6.296;2022-09-13T12:13:34;3.65;;;2.33;;
18812;SDS011;9534;51.140;6.296;2022-09-13T12:17:44;3.97;;;2.20;;
18812;SDS011;9534;51.140;6.296;2022-09-13T12:21:52;3.50;;;2.35;;
18812;SDS011;9534;51.140;6.296;2022-09-13T12:25:59;5.47;;;2.55;;
18812;SDS011;9534;51.140;6.296;2022-09-13T12:30:05;3.33;;;2.38;;
18812;SDS011;9534;51.140;6.296;2022-09-13T12:34:18;4.00;;;2.30;;
18812;SDS011;9534;51.140;6.296;2022-09-13T12:38:28;7.00;;;2.50;;
18812;SDS011;9534;51.140;6.296;2022-09-13T12:43:00;5.07;;;2.50;;
18812;SDS011;9534;51.140;6.296;2022-09-13T12:47:26;3.92;;;2.80;;
18812;SDS011;9534;51.140;6.296;2022-09-13T12:51:46;5.32;;;2.90;;
18812;SDS011;9534;51.140;6.296;2022-09-13T12:56:15;6.25;;;2.75;;
18812;SDS011;9534;51.140;6.296;2022-09-13T13:00:34;3.10;;;2.20;;
18812;SDS011;9534;51.140;6.296;2022-09-13T13:04:43;5.85;;;2.40;;
18812;SDS011;9534;51.140;6.296;2022-09-13T13:08:58;5.10;;;1.70;;
18812;SDS011;9534;51.140;6.296;2022-09-13T13:13:10;5.43;;;2.50;;
18812;SDS011;9534;51.140;6.296;2022-09-13T13:55:39;3.35;;;1.70;;
18812;SDS011;9534;51.140;6.296;2022-09-13T13:59:46;2.22;;;1.50;;
18812;SDS011;9534;51.140;6.296;2022-09-13T14:03:56;5.85;;;1.90;;
18812;SDS011;9534;51.140;6.296;2022-09-13T14:08:31;3.80;;;2.00;;
18812;SDS011;9534;51.140;6.296;2022-09-13T14:12:45;3.90;;;1.73;;
18812;SDS011;9534;51.140;6.296;2022-09-13T14:17:10;4.70;;;2.08;;
18812;SDS011;9534;51.140;6.296;2022-09-13T14:21:35;3.35;;;1.92;;
18812;SDS011;9534;51.140;6.296;2022-09-13T14:25:38;5.60;;;2.40;;
18812;SDS011;9534;51.140;6.296;2022-09-13T14:29:43;4.35;;;2.45;;
18812;SDS011;9534;51.140;6.296;2022-09-13T14:33:48;5.78;;;2.92;;
18812;SDS011;9534;51.140;6.296;2022-09-13T14:37:53;5.28;;;2.45;;
18812;SDS011;9534;51.140;6.296;2022-09-13T14:41:58;4.25;;;2.40;;
18812;SDS011;9534;51.140;6.296;2022-09-13T14:46:04;5.78;;;2.80;;
18812;SDS011;9534;51.140;6.296;2022-09-13T14:50:12;6.82;;;3.00;;
18812;SDS011;9534;51.140;6.296;2022-09-13T14:54:18;10.82;;;2.78;;
18812;SDS011;9534;51.140;6.296;2022-09-13T14:58:27;5.15;;;2.33;;
18812;SDS011;9534;51.140;6.296;2022-09-13T15:02:40;5.95;;;2.05;;
18812;SDS011;9534;51.140;6.296;2022-09-13T15:11:27;3.65;;;1.70;;
18812;SDS011;9534;51.140;6.296;2022-09-13T15:15:33;5.38;;;2.10;;
18812;SDS011;9534;51.140;6.296;2022-09-13T15:19:39;10.55;;;2.13;;
18812;SDS011;9534;51.140;6.296;2022-09-13T15:23:47;4.47;;;2.08;;
18812;SDS011;9534;51.140;6.296;2022-09-13T15:27:53;5.93;;;2.10;;
18812;SDS011;9534;51.140;6.296;2022-09-13T15:31:58;3.67;;;2.00;;
18812;SDS011;9534;51.140;6.296;2022-09-13T15:36:14;11.75;;;2.30;;
18812;SDS011;9534;51.140;6.296;2022-09-13T15:40:27;4.85;;;2.53;;
18812;SDS011;9534;51.140;6.296;2022-09-13T15:44:33;3.30;;;2.42;;
18812;SDS011;9534;51.140;6.296;2022-09-13T15:48:43;6.68;;;2.30;;
18812;SDS011;9534;51.140;6.296;2022-09-13T15:52:52;4.60;;;2.28;;
18812;SDS011;9534;51.140;6.296;2022-09-13T15:56:56;4.97;;;2.45;;
18812;SDS011;9534;51.140;6.296;2022-09-13T16:01:01;4.78;;;2.80;;
18812;SDS011;9534;51.140;6.296;2022-09-13T16:05:06;8.85;;;3.13;;
18812;SDS011;9534;51.140;6.296;2022-09-13T16:09:10;8.40;;;3.13;;
18812;SDS011;9534;51.140;6.296;2022-09-13T16:13:19;7.03;;;2.97;;
18812;SDS011;9534;51.140;6.296;2022-09-13T16:17:25;3.58;;;2.60;;
18812;SDS011;9534;51.140;6.296;2022-09-13T16:21:29;9.35;;;5.07;;
18812;SDS011;9534;51.140;6.296;2022-09-13T16:25:32;5.65;;;3.40;;
18812;SDS011;9534;51.140;6.296;2022-09-13T16:29:36;10.73;;;3.55;;
18812;SDS011;9534;51.140;6.296;2022-09-13T16:33:40;7.57;;;3.45;;
18812;SDS011;9534;51.140;6.296;2022-09-13T16:37:44;7.38;;;3.55;;
18812;SDS011;9534;51.140;6.296;2022-09-13T16:41:51;10.85;;;4.63;;
18812;SDS011;9534;51.140;6.296;2022-09-13T16:45:55;9.30;;;4.07;;
18812;SDS011;9534;51.140;6.296;2022-09-13T16:49:59;9.18;;;4.43;;
18812;SDS011;9534;51.140;6.296;2022-09-13T16:54:02;10.20;;;4.78;;
18812;SDS011;9534;51.140;6.296;2022-09-13T16:58:06;16.25;;;5.38;;
18812;SDS011;9534;51.140;6.296;2022-09-13T17:02:09;10.75;;;4.95;;
18812;SDS011;9534;51.140;6.296;2022-09-13T17:06:15;8.65;;;4.93;;
18812;SDS011;9534;51.140;6.296;2022-09-13T17:10:20;9.98;;;5.55;;
18812;SDS011;9534;51.140;6.296;2022-09-13T17:14:23;15.35;;;6.20;;
18812;SDS011;9534;51.140;6.296;2022-09-13T17:18:26;18.95;;;6.15;;
18812;SDS011;9534;51.140;6.296;2022-09-13T17:22:31;13.75;;;6.00;;
18812;SDS011;9534;51.140;6.296;2022-09-13T17:26:34;15.18;;;7.38;;
18812;SDS011;9534;51.140;6.296;2022-09-13T17:30:38;12.63;;;6.05;;
18812;SDS011;9534;51.140;6.296;2022-09-13T17:34:41;11.88;;;5.57;;
18812;SDS011;9534;51.140;6.296;2022-09-13T17:38:46;12.30;;;5.25;;
18812;SDS011;9534;51.140;6.296;2022-09-13T17:42:49;7.88;;;4.60;;
18812;SDS011;9534;51.140;6.296;2022-09-13T17:46:52;11.50;;;4.95;;
18812;SDS011;9534;51.140;6.296;2022-09-13T17:50:58;10.00;;;5.30;;
18812;SDS011;9534;51.140;6.296;2022-09-13T17:55:04;8.25;;;4.30;;
18812;SDS011;9534;51.140;6.296;2022-09-13T17:59:08;16.42;;;5.05;;
18812;SDS011;9534;51.140;6.296;2022-09-13T18:03:12;9.45;;;4.57;;
18812;SDS011;9534;51.140;6.296;2022-09-13T18:07:16;13.18;;;4.55;;
18812;SDS011;9534;51.140;6.296;2022-09-13T18:11:21;19.88;;;7.45;;
18812;SDS011;9534;51.140;6.296;2022-09-13T18:15:24;13.68;;;4.53;;
18812;SDS011;9534;51.140;6.296;2022-09-13T18:19:28;13.02;;;5.15;;
18812;SDS011;9534;51.140;6.296;2022-09-13T18:23:47;8.65;;;5.03;;
18812;SDS011;9534;51.140;6.296;2022-09-13T18:27:53;10.70;;;5.32;;
18812;SDS011;9534;51.140;6.296;2022-09-13T18:31:56;10.80;;;5.95;;
18812;SDS011;9534;51.140;6.296;2022-09-13T18:36:00;17.85;;;6.80;;
18812;SDS011;9534;51.140;6.296;2022-09-13T18:40:05;10.68;;;6.20;;
18812;SDS011;9534;51.140;6.296;2022-09-13T18:44:16;16.85;;;6.70;;
18812;SDS011;9534;51.140;6.296;2022-09-13T18:48:20;10.68;;;6.50;;
18812;SDS011;9534;51.140;6.296;2022-09-13T18:52:23;12.50;;;6.55;;
18812;SDS011;9534;51.140;6.296;2022-09-13T18:56:26;17.63;;;7.38;;
18812;SDS011;9534;51.140;6.296;2022-09-13T19:00:31;14.95;;;6.82;;
18812;SDS011;9534;51.140;6.296;2022-09-13T19:04:34;15.63;;;7.72;;
18812;SDS011;9534;51.140;6.296;2022-09-13T19:08:38;15.05;;;7.65;;
18812;SDS011;9534;51.140;6.296;2022-09-13T19:12:41;20.15;;;8.60;;
18812;SDS011;9534;51.140;6.296;2022-09-13T19:16:46;17.30;;;8.05;;
18812;SDS011;9534;51.140;6.296;2022-09-13T19:20:49;15.65;;;7.13;;
18812;SDS011;9534;51.140;6.296;2022-09-13T19:24:52;24.52;;;11.48;;
18812;SDS011;9534;51.140;6.296;2022-09-13T19:28:56;15.43;;;6.85;;
18812;SDS011;9534;51.140;6.296;2022-09-13T19:33:05;18.95;;;6.88;;
18812;SDS011;9534;51.140;6.296;2022-09-13T19:37:08;15.30;;;6.80;;
18812;SDS011;9534;51.140;6.296;2022-09-13T19:41:12;14.70;;;6.82;;
18812;SDS011;9534;51.140;6.296;2022-09-13T19:45:16;21.20;;;8.02;;
18812;SDS011;9534;51.140;6.296;2022-09-13T19:49:21;13.95;;;6.72;;
18812;SDS011;9534;51.140;6.296;2022-09-13T19:53:25;19.60;;;8.57;;
18812;SDS011;9534;51.140;6.296;2022-09-13T19:57:48;16.67;;;7.03;;
18812;SDS011;9534;51.140;6.296;2022-09-13T20:01:51;20.40;;;7.47;;
18812;SDS011;9534;51.140;6.296;2022-09-13T20:05:58;22.88;;;8.38;;
18812;SDS011;9534;51.140;6.296;2022-09-13T20:10:03;17.02;;;8.30;;
18812;SDS011;9534;51.140;6.296;2022-09-13T20:14:06;21.00;;;8.73;;
18812;SDS011;9534;51.140;6.296;2022-09-13T20:18:09;22.13;;;9.82;;
18812;SDS011;9534;51.140;6.296;2022-09-13T20:22:17;18.80;;;8.85;;
18812;SDS011;9534;51.140;6.296;2022-09-13T20:26:20;21.80;;;10.35;;
18812;SDS011;9534;51.140;6.296;2022-09-13T20:30:26;24.85;;;9.98;;
18812;SDS011;9534;51.140;6.296;2022-09-13T20:34:29;23.55;;;10.38;;
18812;SDS011;9534;51.140;6.296;2022-09-13T20:38:34;27.95;;;10.85;;
18812;SDS011;9534;51.140;6.296;2022-09-13T20:42:37;25.33;;;10.88;;
18812;SDS011;9534;51.140;6.296;2022-09-13T20:46:40;22.45;;;10.23;;
18812;SDS011;9534;51.140;6.296;2022-09-13T20:50:43;23.10;;;10.50;;
18812;SDS011;9534;51.140;6.296;2022-09-13T20:54:48;25.00;;;10.65;;
18812;SDS011;9534;51.140;6.296;2022-09-13T20:58:52;25.75;;;10.88;;
18812;SDS011;9534;51.140;6.296;2022-09-13T21:02:59;23.73;;;10.43;;
18812;SDS011;9534;51.140;6.296;2022-09-13T21:07:02;26.20;;;11.68;;
18812;SDS011;9534;51.140;6.296;2022-09-13T21:11:24;26.10;;;10.82;;
18812;SDS011;9534;51.140;6.296;2022-09-13T21:15:31;29.77;;;11.90;;
18812;SDS011;9534;51.140;6.296;2022-09-13T21:19:36;26.92;;;11.32;;
18812;SDS011;9534;51.140;6.296;2022-09-13T21:23:39;29.42;;;12.32;;
18812;SDS011;9534;51.140;6.296;2022-09-13T21:27:44;29.48;;;12.65;;
18812;SDS011;9534;51.140;6.296;2022-09-13T21:31:47;29.77;;;12.55;;
18812;SDS011;9534;51.140;6.296;2022-09-13T21:35:50;29.17;;;12.15;;
18812;SDS011;9534;51.140;6.296;2022-09-13T21:39:53;32.15;;;13.48;;
18812;SDS011;9534;51.140;6.296;2022-09-13T21:43:58;30.92;;;13.00;;
18812;SDS011;9534;51.140;6.296;2022-09-13T21:48:01;34.83;;;13.70;;
18812;SDS011;9534;51.140;6.296;2022-09-13T21:52:04;33.58;;;13.43;;
18812;SDS011;9534;51.140;6.296;2022-09-13T21:56:08;35.30;;;14.30;;
18812;SDS011;9534;51.140;6.296;2022-09-13T22:00:14;28.50;;;12.70;;
18812;SDS011;9534;51.140;6.296;2022-09-13T22:04:20;35.72;;;13.82;;
18812;SDS011;9534;51.140;6.296;2022-09-13T22:08:28;32.40;;;12.05;;
18812;SDS011;9534;51.140;6.296;2022-09-13T22:12:32;25.02;;;9.68;;
18812;SDS011;9534;51.140;6.296;2022-09-13T22:16:38;15.00;;;6.32;;
18812;SDS011;9534;51.140;6.296;2022-09-13T22:20:42;13.27;;;4.85;;
18812;SDS011;9534;51.140;6.296;2022-09-13T22:24:45;14.15;;;4.15;;
18812;SDS011;9534;51.140;6.296;2022-09-13T22:28:49;10.27;;;4.13;;
18812;SDS011;9534;51.140;6.296;2022-09-13T22:32:54;14.02;;;3.83;;
18812;SDS011;9534;51.140;6.296;2022-09-13T22:36:57;10.73;;;3.85;;
18812;SDS011;9534;51.140;6.296;2022-09-13T22:41:02;5.72;;;3.45;;
18812;SDS011;9534;51.140;6.296;2022-09-13T22:45:06;10.73;;;2.97;;
18812;SDS011;9534;51.140;6.296;2022-09-13T22:49:12;6.28;;;2.65;;
18812;SDS011;9534;51.140;6.296;2022-09-13T22:53:16;6.57;;;2.60;;
18812;SDS011;9534;51.140;6.296;2022-09-13T22:57:19;5.13;;;2.70;;
18812;SDS011;9534;51.140;6.296;2022-09-13T23:01:23;8.57;;;2.47;;
18812;SDS011;9534;51.140;6.296;2022-09-13T23:05:28;6.25;;;2.97;;
18812;SDS011;9534;51.140;6.296;2022-09-13T23:09:32;5.40;;;2.75;;
18812;SDS011;9534;51.140;6.296;2022-09-13T23:13:35;5.47;;;2.70;;
18812;SDS011;9534;51.140;6.296;2022-09-13T23:17:39;5.38;;;2.30;;
18812;SDS011;9534;51.140;6.296;2022-09-13T23:21:43;6.50;;;2.90;;
18812;SDS011;9534;51.140;6.296;2022-09-13T23:25:46;5.07;;;2.47;;
18812;SDS011;9534;51.140;6.296;2022-09-13T23:29:50;4.43;;;2.47;;
18812;SDS011;9534;51.140;6.296;2022-09-13T23:33:53;8.23;;;2.45;;
18812;SDS011;9534;51.140;6.296;2022-09-13T23:37:59;5.70;;;2.33;;
18812;SDS011;9534;51.140;6.296;2022-09-13T23:42:02;10.55;;;2.88;;
18812;SDS011;9534;51.140;6.296;2022-09-13T23:46:06;5.45;;;2.47;;
18812;SDS011;9534;51.140;6.296;2022-09-13T23:50:09;8.13;;;2.65;;
18812;SDS011;9534;51.140;6.296;2022-09-13T23:54:14;6.90;;;2.55;;
18812;SDS011;9534;51.140;6.296;2022-09-13T23:58:17;6.30;;;2.20;;
